sensor_id;sensor_type;location;lat;lon;timestamp;P1;durP1;ratioP1;P2;durP2;ratioP2
23101;SDS011;11720;51.214;22.574;2022-11-15T00:00:44;15.27;;;6.97;;
23101;SDS011;11720;51.214;22.574;2022-11-15T00:03:12;19.40;;;7.40;;
23101;SDS011;11720;51.214;22.574;2022-11-15T00:05:41;14.80;;;8.13;;
23101;SDS011;11720;51.214;22.574;2022-11-15T00:08:07;18.80;;;8.13;;
23101;SDS011;11720;51.214;22.574;2022-11-15T00:10:33;16.57;;;8.80;;
23101;SDS011;11720;51.214;22.574;2022-11-15T00:12:59;17.10;;;8.83;;
23101;SDS011;11720;51.214;22.574;2022-11-15T00:15:25;26.33;;;9.37;;
23101;SDS011;11720;51.214;22.574;2022-11-15T00:17:51;14.83;;;8.20;;
23101;SDS011;11720;51.214;22.574;2022-11-15T00:20:17;17.77;;;8.33;;
23101;SDS011;11720;51.214;22.574;2022-11-15T00:22:43;13.00;;;6.83;;
23101;SDS011;11720;51.214;22.574;2022-11-15T00:25:09;19.47;;;7.77;;
23101;SDS011;11720;51.214;22.574;2022-11-15T00:27:35;22.57;;;9.50;;
23101;SDS011;11720;51.214;22.574;2022-11-15T00:30:01;13.83;;;8.30;;
23101;SDS011;11720;51.214;22.574;2022-11-15T00:32:31;21.57;;;8.57;;
23101;SDS011;11720;51.214;22.574;2022-11-15T00:34:57;21.40;;;8.73;;
23101;SDS011;11720;51.214;22.574;2022-11-15T00:37:26;27.27;;;8.27;;
23101;SDS011;11720;51.214;22.574;2022-11-15T00:39:51;16.60;;;7.60;;
23101;SDS011;11720;51.214;22.574;2022-11-15T00:42:17;15.33;;;7.00;;
23101;SDS011;11720;51.214;22.574;2022-11-15T00:44:43;15.70;;;7.47;;
23101;SDS011;11720;51.214;22.574;2022-11-15T00:47:09;12.30;;;6.20;;
23101;SDS011;11720;51.214;22.574;2022-11-15T00:49:35;14.80;;;7.70;;
23101;SDS011;11720;51.214;22.574;2022-11-15T00:52:01;18.07;;;7.20;;
23101;SDS011;11720;51.214;22.574;2022-11-15T00:54:29;20.53;;;8.83;;
23101;SDS011;11720;51.214;22.574;2022-11-15T00:56:55;18.80;;;7.77;;
23101;SDS011;11720;51.214;22.574;2022-11-15T00:59:21;18.07;;;6.83;;
23101;SDS011;11720;51.214;22.574;2022-11-15T01:01:47;13.50;;;6.97;;
23101;SDS011;11720;51.214;22.574;2022-11-15T01:04:13;22.10;;;7.13;;
23101;SDS011;11720;51.214;22.574;2022-11-15T01:06:39;16.33;;;7.60;;
23101;SDS011;11720;51.214;22.574;2022-11-15T01:09:05;16.13;;;7.43;;
23101;SDS011;11720;51.214;22.574;2022-11-15T01:11:31;15.63;;;7.70;;
23101;SDS011;11720;51.214;22.574;2022-11-15T01:13:57;16.27;;;6.87;;
23101;SDS011;11720;51.214;22.574;2022-11-15T01:16:23;15.37;;;6.77;;
23101;SDS011;11720;51.214;22.574;2022-11-15T01:18:50;12.47;;;5.50;;
23101;SDS011;11720;51.214;22.574;2022-11-15T01:21:17;16.63;;;5.87;;
23101;SDS011;11720;51.214;22.574;2022-11-15T01:23:44;11.97;;;6.13;;
23101;SDS011;11720;51.214;22.574;2022-11-15T01:26:11;14.67;;;5.40;;
23101;SDS011;11720;51.214;22.574;2022-11-15T01:28:40;12.37;;;5.63;;
23101;SDS011;11720;51.214;22.574;2022-11-15T01:31:09;19.63;;;6.73;;
23101;SDS011;11720;51.214;22.574;2022-11-15T01:33:37;9.03;;;5.70;;
23101;SDS011;11720;51.214;22.574;2022-11-15T01:36:04;13.00;;;6.17;;
23101;SDS011;11720;51.214;22.574;2022-11-15T01:38:33;12.47;;;6.00;;
23101;SDS011;11720;51.214;22.574;2022-11-15T01:40:59;11.93;;;6.53;;
23101;SDS011;11720;51.214;22.574;2022-11-15T01:43:26;13.17;;;5.53;;
23101;SDS011;11720;51.214;22.574;2022-11-15T01:46:12;12.57;;;5.53;;
23101;SDS011;11720;51.214;22.574;2022-11-15T01:48:51;16.20;;;7.57;;
23101;SDS011;11720;51.214;22.574;2022-11-15T01:51:20;14.83;;;6.03;;
23101;SDS011;11720;51.214;22.574;2022-11-15T01:53:50;15.43;;;7.30;;
23101;SDS011;11720;51.214;22.574;2022-11-15T01:56:20;11.90;;;5.73;;
23101;SDS011;11720;51.214;22.574;2022-11-15T01:58:51;16.97;;;6.90;;
23101;SDS011;11720;51.214;22.574;2022-11-15T02:01:18;16.90;;;6.07;;
23101;SDS011;11720;51.214;22.574;2022-11-15T02:03:58;18.80;;;7.63;;
23101;SDS011;11720;51.214;22.574;2022-11-15T02:06:29;17.83;;;7.83;;
23101;SDS011;11720;51.214;22.574;2022-11-15T02:08:56;24.93;;;8.80;;
23101;SDS011;11720;51.214;22.574;2022-11-15T02:11:23;16.43;;;5.87;;
23101;SDS011;11720;51.214;22.574;2022-11-15T02:13:49;14.00;;;5.13;;
23101;SDS011;11720;51.214;22.574;2022-11-15T02:16:41;10.67;;;5.10;;
23101;SDS011;11720;51.214;22.574;2022-11-15T02:19:40;20.73;;;5.50;;
23101;SDS011;11720;51.214;22.574;2022-11-15T02:27:59;15.30;;;5.47;;
23101;SDS011;11720;51.214;22.574;2022-11-15T02:41:29;16.00;;;6.20;;
23101;SDS011;11720;51.214;22.574;2022-11-15T02:46:34;12.67;;;5.40;;
23101;SDS011;11720;51.214;22.574;2022-11-15T02:49:20;11.70;;;5.70;;
23101;SDS011;11720;51.214;22.574;2022-11-15T02:51:48;11.47;;;6.57;;
23101;SDS011;11720;51.214;22.574;2022-11-15T02:54:25;11.43;;;5.33;;
23101;SDS011;11720;51.214;22.574;2022-11-15T02:56:59;12.03;;;5.43;;
23101;SDS011;11720;51.214;22.574;2022-11-15T02:59:33;9.63;;;4.27;;
23101;SDS011;11720;51.214;22.574;2022-11-15T03:02:12;21.00;;;7.30;;
23101;SDS011;11720;51.214;22.574;2022-11-15T03:04:43;12.33;;;4.90;;
23101;SDS011;11720;51.214;22.574;2022-11-15T03:12:24;10.27;;;5.07;;
23101;SDS011;11720;51.214;22.574;2022-11-15T03:15:16;11.97;;;4.60;;
23101;SDS011;11720;51.214;22.574;2022-11-15T03:18:00;12.30;;;4.07;;
23101;SDS011;11720;51.214;22.574;2022-11-15T03:20:30;16.50;;;5.37;;
23101;SDS011;11720;51.214;22.574;2022-11-15T03:23:00;9.30;;;5.57;;
23101;SDS011;11720;51.214;22.574;2022-11-15T03:25:29;9.43;;;4.47;;
23101;SDS011;11720;51.214;22.574;2022-11-15T03:27:58;10.63;;;5.13;;
23101;SDS011;11720;51.214;22.574;2022-11-15T03:30:28;11.53;;;4.73;;
23101;SDS011;11720;51.214;22.574;2022-11-15T03:32:57;17.70;;;4.87;;
23101;SDS011;11720;51.214;22.574;2022-11-15T03:35:27;13.30;;;5.50;;
23101;SDS011;11720;51.214;22.574;2022-11-15T03:40:44;15.70;;;5.60;;
23101;SDS011;11720;51.214;22.574;2022-11-15T03:46:00;16.40;;;5.93;;
23101;SDS011;11720;51.214;22.574;2022-11-15T03:48:37;12.37;;;4.37;;
23101;SDS011;11720;51.214;22.574;2022-11-15T03:51:10;12.37;;;5.03;;
23101;SDS011;11720;51.214;22.574;2022-11-15T03:53:39;10.20;;;4.50;;
23101;SDS011;11720;51.214;22.574;2022-11-15T03:56:08;18.30;;;4.57;;
23101;SDS011;11720;51.214;22.574;2022-11-15T03:58:34;13.60;;;5.70;;
23101;SDS011;11720;51.214;22.574;2022-11-15T04:01:00;19.10;;;4.13;;
23101;SDS011;11720;51.214;22.574;2022-11-15T04:03:32;8.80;;;3.70;;
23101;SDS011;11720;51.214;22.574;2022-11-15T04:05:58;12.23;;;4.80;;
23101;SDS011;11720;51.214;22.574;2022-11-15T04:08:23;11.10;;;4.07;;
23101;SDS011;11720;51.214;22.574;2022-11-15T04:10:49;7.90;;;4.63;;
23101;SDS011;11720;51.214;22.574;2022-11-15T04:13:15;14.67;;;4.27;;
23101;SDS011;11720;51.214;22.574;2022-11-15T04:15:41;9.87;;;4.93;;
23101;SDS011;11720;51.214;22.574;2022-11-15T04:18:09;22.27;;;6.70;;
23101;SDS011;11720;51.214;22.574;2022-11-15T04:20:35;9.83;;;5.57;;
23101;SDS011;11720;51.214;22.574;2022-11-15T04:23:21;11.47;;;5.63;;
23101;SDS011;11720;51.214;22.574;2022-11-15T04:26:27;20.40;;;5.70;;
23101;SDS011;11720;51.214;22.574;2022-11-15T04:28:52;8.33;;;4.17;;
23101;SDS011;11720;51.214;22.574;2022-11-15T04:31:37;6.67;;;3.83;;
23101;SDS011;11720;51.214;22.574;2022-11-15T04:34:03;10.70;;;4.13;;
23101;SDS011;11720;51.214;22.574;2022-11-15T04:36:29;14.87;;;5.77;;
23101;SDS011;11720;51.214;22.574;2022-11-15T04:39:13;11.80;;;5.17;;
23101;SDS011;11720;51.214;22.574;2022-11-15T04:41:39;9.77;;;5.60;;
23101;SDS011;11720;51.214;22.574;2022-11-15T04:44:05;4.27;;;2.77;;
23101;SDS011;11720;51.214;22.574;2022-11-15T04:46:31;10.13;;;5.03;;
23101;SDS011;11720;51.214;22.574;2022-11-15T04:48:59;12.00;;;4.57;;
23101;SDS011;11720;51.214;22.574;2022-11-15T04:51:25;14.50;;;5.83;;
23101;SDS011;11720;51.214;22.574;2022-11-15T04:53:51;13.93;;;6.00;;
23101;SDS011;11720;51.214;22.574;2022-11-15T04:56:17;36.93;;;12.20;;
23101;SDS011;11720;51.214;22.574;2022-11-15T04:58:43;14.97;;;5.50;;
23101;SDS011;11720;51.214;22.574;2022-11-15T05:01:10;11.57;;;5.60;;
23101;SDS011;11720;51.214;22.574;2022-11-15T05:03:39;6.90;;;3.53;;
23101;SDS011;11720;51.214;22.574;2022-11-15T05:06:25;8.23;;;4.93;;
23101;SDS011;11720;51.214;22.574;2022-11-15T05:08:51;7.67;;;3.80;;
23101;SDS011;11720;51.214;22.574;2022-11-15T05:11:17;7.20;;;4.27;;
23101;SDS011;11720;51.214;22.574;2022-11-15T05:13:43;10.50;;;3.83;;
23101;SDS011;11720;51.214;22.574;2022-11-15T05:16:09;9.13;;;3.90;;
23101;SDS011;11720;51.214;22.574;2022-11-15T05:18:35;12.73;;;4.83;;
23101;SDS011;11720;51.214;22.574;2022-11-15T05:21:05;6.67;;;3.73;;
23101;SDS011;11720;51.214;22.574;2022-11-15T05:23:32;7.30;;;3.83;;
23101;SDS011;11720;51.214;22.574;2022-11-15T05:25:59;8.17;;;4.47;;
23101;SDS011;11720;51.214;22.574;2022-11-15T05:28:25;12.20;;;5.60;;
23101;SDS011;11720;51.214;22.574;2022-11-15T05:30:57;9.20;;;4.30;;
23101;SDS011;11720;51.214;22.574;2022-11-15T05:33:29;9.77;;;3.73;;
23101;SDS011;11720;51.214;22.574;2022-11-15T05:35:57;5.07;;;3.57;;
23101;SDS011;11720;51.214;22.574;2022-11-15T05:38:37;12.10;;;5.27;;
23101;SDS011;11720;51.214;22.574;2022-11-15T05:41:03;13.73;;;4.40;;
23101;SDS011;11720;51.214;22.574;2022-11-15T05:43:29;7.33;;;4.50;;
23101;SDS011;11720;51.214;22.574;2022-11-15T05:45:59;9.13;;;3.63;;
23101;SDS011;11720;51.214;22.574;2022-11-15T05:48:27;12.20;;;5.57;;
23101;SDS011;11720;51.214;22.574;2022-11-15T05:50:55;10.77;;;3.80;;
23101;SDS011;11720;51.214;22.574;2022-11-15T05:53:21;7.90;;;3.53;;
23101;SDS011;11720;51.214;22.574;2022-11-15T05:55:49;11.47;;;4.47;;
23101;SDS011;11720;51.214;22.574;2022-11-15T05:58:16;11.70;;;5.90;;
23101;SDS011;11720;51.214;22.574;2022-11-15T06:00:42;6.87;;;4.43;;
23101;SDS011;11720;51.214;22.574;2022-11-15T06:03:08;8.17;;;3.67;;
23101;SDS011;11720;51.214;22.574;2022-11-15T06:05:34;9.33;;;4.17;;
23101;SDS011;11720;51.214;22.574;2022-11-15T06:08:00;7.63;;;3.13;;
23101;SDS011;11720;51.214;22.574;2022-11-15T06:10:26;9.03;;;4.27;;
23101;SDS011;11720;51.214;22.574;2022-11-15T06:12:56;8.63;;;3.80;;
23101;SDS011;11720;51.214;22.574;2022-11-15T06:15:25;7.50;;;3.67;;
23101;SDS011;11720;51.214;22.574;2022-11-15T06:17:53;12.47;;;4.87;;
23101;SDS011;11720;51.214;22.574;2022-11-15T06:20:22;15.43;;;4.17;;
23101;SDS011;11720;51.214;22.574;2022-11-15T06:22:56;10.47;;;4.50;;
23101;SDS011;11720;51.214;22.574;2022-11-15T06:25:25;8.93;;;5.17;;
23101;SDS011;11720;51.214;22.574;2022-11-15T06:27:52;7.70;;;4.30;;
23101;SDS011;11720;51.214;22.574;2022-11-15T06:30:19;10.03;;;4.60;;
23101;SDS011;11720;51.214;22.574;2022-11-15T06:32:47;5.87;;;3.97;;
23101;SDS011;11720;51.214;22.574;2022-11-15T06:35:13;11.13;;;4.43;;
23101;SDS011;11720;51.214;22.574;2022-11-15T06:37:40;7.60;;;3.50;;
23101;SDS011;11720;51.214;22.574;2022-11-15T06:40:07;17.37;;;6.17;;
23101;SDS011;11720;51.214;22.574;2022-11-15T06:42:33;9.60;;;4.50;;
23101;SDS011;11720;51.214;22.574;2022-11-15T06:44:59;6.43;;;4.03;;
23101;SDS011;11720;51.214;22.574;2022-11-15T06:47:25;16.80;;;4.80;;
23101;SDS011;11720;51.214;22.574;2022-11-15T06:49:52;15.93;;;4.50;;
23101;SDS011;11720;51.214;22.574;2022-11-15T06:52:20;9.00;;;4.70;;
23101;SDS011;11720;51.214;22.574;2022-11-15T06:54:47;12.67;;;3.93;;
23101;SDS011;11720;51.214;22.574;2022-11-15T06:57:13;13.00;;;4.87;;
23101;SDS011;11720;51.214;22.574;2022-11-15T06:59:39;6.93;;;3.17;;
23101;SDS011;11720;51.214;22.574;2022-11-15T07:02:11;14.47;;;4.80;;
23101;SDS011;11720;51.214;22.574;2022-11-15T07:04:38;6.50;;;4.07;;
23101;SDS011;11720;51.214;22.574;2022-11-15T07:07:04;10.37;;;4.83;;
23101;SDS011;11720;51.214;22.574;2022-11-15T07:09:30;9.13;;;3.97;;
23101;SDS011;11720;51.214;22.574;2022-11-15T07:11:56;15.30;;;7.17;;
23101;SDS011;11720;51.214;22.574;2022-11-15T07:14:22;8.40;;;5.03;;
23101;SDS011;11720;51.214;22.574;2022-11-15T07:16:48;9.83;;;5.03;;
23101;SDS011;11720;51.214;22.574;2022-11-15T07:19:14;10.47;;;3.63;;
23101;SDS011;11720;51.214;22.574;2022-11-15T07:21:39;10.43;;;3.83;;
23101;SDS011;11720;51.214;22.574;2022-11-15T07:24:05;5.77;;;3.63;;
23101;SDS011;11720;51.214;22.574;2022-11-15T07:26:31;12.53;;;6.37;;
23101;SDS011;11720;51.214;22.574;2022-11-15T07:29:00;10.00;;;5.70;;
23101;SDS011;11720;51.214;22.574;2022-11-15T07:31:25;7.63;;;4.67;;
23101;SDS011;11720;51.214;22.574;2022-11-15T07:33:52;9.83;;;4.60;;
23101;SDS011;11720;51.214;22.574;2022-11-15T07:36:18;8.50;;;4.70;;
23101;SDS011;11720;51.214;22.574;2022-11-15T07:38:44;14.57;;;5.17;;
23101;SDS011;11720;51.214;22.574;2022-11-15T07:41:10;6.00;;;3.60;;
23101;SDS011;11720;51.214;22.574;2022-11-15T07:43:36;10.53;;;3.67;;
23101;SDS011;11720;51.214;22.574;2022-11-15T07:46:06;9.07;;;4.60;;
23101;SDS011;11720;51.214;22.574;2022-11-15T07:48:34;15.00;;;5.20;;
23101;SDS011;11720;51.214;22.574;2022-11-15T07:51:00;8.10;;;4.10;;
23101;SDS011;11720;51.214;22.574;2022-11-15T07:53:26;8.83;;;4.73;;
23101;SDS011;11720;51.214;22.574;2022-11-15T07:55:52;9.53;;;4.13;;
23101;SDS011;11720;51.214;22.574;2022-11-15T07:58:18;9.80;;;4.97;;
23101;SDS011;11720;51.214;22.574;2022-11-15T08:00:44;6.43;;;2.87;;
23101;SDS011;11720;51.214;22.574;2022-11-15T08:03:11;8.23;;;3.00;;
23101;SDS011;11720;51.214;22.574;2022-11-15T08:05:41;6.57;;;3.83;;
23101;SDS011;11720;51.214;22.574;2022-11-15T08:08:08;5.13;;;3.63;;
23101;SDS011;11720;51.214;22.574;2022-11-15T08:10:38;6.83;;;3.77;;
23101;SDS011;11720;51.214;22.574;2022-11-15T08:13:05;7.83;;;4.03;;
23101;SDS011;11720;51.214;22.574;2022-11-15T08:15:32;7.43;;;3.70;;
23101;SDS011;11720;51.214;22.574;2022-11-15T08:18:02;11.47;;;5.27;;
23101;SDS011;11720;51.214;22.574;2022-11-15T08:20:30;9.40;;;4.53;;
23101;SDS011;11720;51.214;22.574;2022-11-15T08:23:00;8.40;;;3.70;;
23101;SDS011;11720;51.214;22.574;2022-11-15T08:25:28;9.70;;;4.57;;
23101;SDS011;11720;51.214;22.574;2022-11-15T08:27:59;7.53;;;4.80;;
23101;SDS011;11720;51.214;22.574;2022-11-15T08:30:26;10.50;;;3.77;;
23101;SDS011;11720;51.214;22.574;2022-11-15T08:32:56;3.70;;;2.77;;
23101;SDS011;11720;51.214;22.574;2022-11-15T08:35:25;7.33;;;4.07;;
23101;SDS011;11720;51.214;22.574;2022-11-15T08:37:52;4.67;;;2.87;;
23101;SDS011;11720;51.214;22.574;2022-11-15T08:40:18;5.00;;;3.27;;
23101;SDS011;11720;51.214;22.574;2022-11-15T08:42:47;6.23;;;3.87;;
23101;SDS011;11720;51.214;22.574;2022-11-15T08:45:14;6.57;;;3.00;;
23101;SDS011;11720;51.214;22.574;2022-11-15T08:47:40;4.63;;;2.83;;
23101;SDS011;11720;51.214;22.574;2022-11-15T08:50:06;8.70;;;4.50;;
23101;SDS011;11720;51.214;22.574;2022-11-15T08:52:32;12.90;;;4.27;;
23101;SDS011;11720;51.214;22.574;2022-11-15T08:54:58;8.47;;;3.50;;
23101;SDS011;11720;51.214;22.574;2022-11-15T08:57:27;6.67;;;3.40;;
23101;SDS011;11720;51.214;22.574;2022-11-15T08:59:55;10.87;;;4.80;;
23101;SDS011;11720;51.214;22.574;2022-11-15T09:02:21;4.63;;;2.77;;
23101;SDS011;11720;51.214;22.574;2022-11-15T09:04:47;6.20;;;3.13;;
23101;SDS011;11720;51.214;22.574;2022-11-15T09:07:15;4.63;;;3.00;;
23101;SDS011;11720;51.214;22.574;2022-11-15T09:09:49;6.13;;;2.93;;
23101;SDS011;11720;51.214;22.574;2022-11-15T09:12:17;4.13;;;2.53;;
23101;SDS011;11720;51.214;22.574;2022-11-15T09:14:43;7.10;;;3.00;;
23101;SDS011;11720;51.214;22.574;2022-11-15T09:17:09;8.77;;;3.23;;
23101;SDS011;11720;51.214;22.574;2022-11-15T09:19:38;4.50;;;2.97;;
23101;SDS011;11720;51.214;22.574;2022-11-15T09:22:07;7.10;;;3.30;;
23101;SDS011;11720;51.214;22.574;2022-11-15T09:24:42;6.67;;;3.60;;
23101;SDS011;11720;51.214;22.574;2022-11-15T09:27:08;8.13;;;3.30;;
23101;SDS011;11720;51.214;22.574;2022-11-15T09:29:37;4.63;;;2.83;;
23101;SDS011;11720;51.214;22.574;2022-11-15T09:32:03;7.10;;;4.40;;
23101;SDS011;11720;51.214;22.574;2022-11-15T09:34:29;5.63;;;3.53;;
23101;SDS011;11720;51.214;22.574;2022-11-15T09:36:55;7.20;;;3.40;;
23101;SDS011;11720;51.214;22.574;2022-11-15T09:39:21;8.70;;;4.03;;
23101;SDS011;11720;51.214;22.574;2022-11-15T09:41:53;14.87;;;4.60;;
23101;SDS011;11720;51.214;22.574;2022-11-15T09:44:30;7.27;;;4.07;;
23101;SDS011;11720;51.214;22.574;2022-11-15T09:50:17;5.30;;;3.07;;
23101;SDS011;11720;51.214;22.574;2022-11-15T09:56:01;6.77;;;4.57;;
23101;SDS011;11720;51.214;22.574;2022-11-15T09:58:38;9.93;;;3.60;;
23101;SDS011;11720;51.214;22.574;2022-11-15T10:01:20;5.60;;;3.70;;
23101;SDS011;11720;51.214;22.574;2022-11-15T10:04:06;7.27;;;3.43;;
23101;SDS011;11720;51.214;22.574;2022-11-15T10:06:32;8.17;;;4.10;;
23101;SDS011;11720;51.214;22.574;2022-11-15T10:09:09;5.43;;;3.97;;
23101;SDS011;11720;51.214;22.574;2022-11-15T10:11:37;7.53;;;4.20;;
23101;SDS011;11720;51.214;22.574;2022-11-15T10:14:22;12.93;;;5.43;;
23101;SDS011;11720;51.214;22.574;2022-11-15T10:20:00;6.67;;;3.30;;
23101;SDS011;11720;51.214;22.574;2022-11-15T10:22:46;5.43;;;3.50;;
23101;SDS011;11720;51.214;22.574;2022-11-15T10:25:26;9.40;;;4.63;;
23101;SDS011;11720;51.214;22.574;2022-11-15T10:30:44;11.73;;;4.67;;
23101;SDS011;11720;51.214;22.574;2022-11-15T10:41:19;7.83;;;4.10;;
23101;SDS011;11720;51.214;22.574;2022-11-15T10:43:45;9.23;;;5.00;;
23101;SDS011;11720;51.214;22.574;2022-11-15T10:46:28;8.43;;;4.97;;
23101;SDS011;11720;51.214;22.574;2022-11-15T10:48:58;9.00;;;4.17;;
23101;SDS011;11720;51.214;22.574;2022-11-15T10:51:42;13.27;;;4.03;;
23101;SDS011;11720;51.214;22.574;2022-11-15T10:56:51;10.87;;;6.80;;
23101;SDS011;11720;51.214;22.574;2022-11-15T10:59:29;10.17;;;6.13;;
23101;SDS011;11720;51.214;22.574;2022-11-15T11:01:57;10.57;;;5.30;;
23101;SDS011;11720;51.214;22.574;2022-11-15T11:04:26;10.30;;;4.93;;
23101;SDS011;11720;51.214;22.574;2022-11-15T11:09:39;19.53;;;9.53;;
23101;SDS011;11720;51.214;22.574;2022-11-15T11:12:09;10.67;;;6.07;;
23101;SDS011;11720;51.214;22.574;2022-11-15T11:14:37;20.00;;;5.33;;
23101;SDS011;11720;51.214;22.574;2022-11-15T11:19:52;7.70;;;4.53;;
23101;SDS011;11720;51.214;22.574;2022-11-15T11:22:48;12.97;;;7.10;;
23101;SDS011;11720;51.214;22.574;2022-11-15T11:36:29;12.67;;;5.93;;
23101;SDS011;11720;51.214;22.574;2022-11-15T11:39:28;11.87;;;6.47;;
23101;SDS011;11720;51.214;22.574;2022-11-15T11:42:20;14.10;;;7.43;;
23101;SDS011;11720;51.214;22.574;2022-11-15T11:47:51;12.80;;;6.60;;
23101;SDS011;11720;51.214;22.574;2022-11-15T11:50:26;10.00;;;6.60;;
23101;SDS011;11720;51.214;22.574;2022-11-15T11:55:43;12.60;;;5.03;;
23101;SDS011;11720;51.214;22.574;2022-11-15T12:04:04;18.80;;;10.73;;
23101;SDS011;11720;51.214;22.574;2022-11-15T12:06:56;10.87;;;7.87;;
23101;SDS011;11720;51.214;22.574;2022-11-15T12:14:51;12.70;;;5.83;;
23101;SDS011;11720;51.214;22.574;2022-11-15T12:17:24;12.17;;;6.20;;
23101;SDS011;11720;51.214;22.574;2022-11-15T12:19:52;12.57;;;6.80;;
23101;SDS011;11720;51.214;22.574;2022-11-15T12:22:28;9.10;;;5.87;;
23101;SDS011;11720;51.214;22.574;2022-11-15T12:25:27;14.20;;;7.03;;
23101;SDS011;11720;51.214;22.574;2022-11-15T12:27:57;12.27;;;5.03;;
23101;SDS011;11720;51.214;22.574;2022-11-15T12:34:13;12.73;;;6.07;;
23101;SDS011;11720;51.214;22.574;2022-11-15T12:36:49;14.27;;;7.30;;
23101;SDS011;11720;51.214;22.574;2022-11-15T12:39:21;15.57;;;7.27;;
23101;SDS011;11720;51.214;22.574;2022-11-15T12:45:00;18.67;;;7.40;;
23101;SDS011;11720;51.214;22.574;2022-11-15T12:47:29;12.20;;;7.10;;
23101;SDS011;11720;51.214;22.574;2022-11-15T12:49:55;18.40;;;8.30;;
23101;SDS011;11720;51.214;22.574;2022-11-15T12:52:21;19.43;;;7.63;;
23101;SDS011;11720;51.214;22.574;2022-11-15T12:55:14;15.87;;;7.37;;
23101;SDS011;11720;51.214;22.574;2022-11-15T13:01:09;16.07;;;7.10;;
23101;SDS011;11720;51.214;22.574;2022-11-15T13:09:54;16.13;;;6.47;;
23101;SDS011;11720;51.214;22.574;2022-11-15T13:14:53;15.67;;;6.33;;
23101;SDS011;11720;51.214;22.574;2022-11-15T13:20:00;25.00;;;8.37;;
23101;SDS011;11720;51.214;22.574;2022-11-15T13:22:43;14.13;;;7.53;;
23101;SDS011;11720;51.214;22.574;2022-11-15T13:30:40;12.10;;;6.60;;
23101;SDS011;11720;51.214;22.574;2022-11-15T13:33:18;12.47;;;6.60;;
23101;SDS011;11720;51.214;22.574;2022-11-15T13:35:50;14.67;;;7.93;;
23101;SDS011;11720;51.214;22.574;2022-11-15T13:41:25;12.93;;;7.00;;
23101;SDS011;11720;51.214;22.574;2022-11-15T13:44:17;19.53;;;9.43;;
23101;SDS011;11720;51.214;22.574;2022-11-15T13:47:02;13.70;;;7.43;;
23101;SDS011;11720;51.214;22.574;2022-11-15T13:49:30;18.37;;;8.57;;
23101;SDS011;11720;51.214;22.574;2022-11-15T13:52:13;14.90;;;7.93;;
23101;SDS011;11720;51.214;22.574;2022-11-15T13:54:46;19.60;;;8.03;;
23101;SDS011;11720;51.214;22.574;2022-11-15T13:57:18;15.40;;;8.00;;
23101;SDS011;11720;51.214;22.574;2022-11-15T13:59:50;13.43;;;6.97;;
23101;SDS011;11720;51.214;22.574;2022-11-15T14:02:25;13.50;;;8.17;;
23101;SDS011;11720;51.214;22.574;2022-11-15T14:04:54;18.63;;;7.80;;
23101;SDS011;11720;51.214;22.574;2022-11-15T14:07:25;15.07;;;8.00;;
23101;SDS011;11720;51.214;22.574;2022-11-15T14:09:57;24.70;;;10.13;;
23101;SDS011;11720;51.214;22.574;2022-11-15T14:12:49;14.30;;;8.30;;
23101;SDS011;11720;51.214;22.574;2022-11-15T14:18:01;27.27;;;13.83;;
23101;SDS011;11720;51.214;22.574;2022-11-15T14:20:29;17.13;;;8.30;;
23101;SDS011;11720;51.214;22.574;2022-11-15T14:23:04;16.30;;;8.10;;
23101;SDS011;11720;51.214;22.574;2022-11-15T14:25:54;14.73;;;8.03;;
23101;SDS011;11720;51.214;22.574;2022-11-15T14:30:53;13.93;;;7.07;;
23101;SDS011;11720;51.214;22.574;2022-11-15T14:33:25;16.53;;;7.60;;
23101;SDS011;11720;51.214;22.574;2022-11-15T14:36:05;16.33;;;7.40;;
23101;SDS011;11720;51.214;22.574;2022-11-15T14:38:34;18.33;;;8.47;;
23101;SDS011;11720;51.214;22.574;2022-11-15T14:41:00;13.97;;;8.07;;
23101;SDS011;11720;51.214;22.574;2022-11-15T14:43:28;14.10;;;7.87;;
23101;SDS011;11720;51.214;22.574;2022-11-15T14:45:55;20.50;;;10.57;;
23101;SDS011;11720;51.214;22.574;2022-11-15T14:48:21;23.70;;;9.17;;
23101;SDS011;11720;51.214;22.574;2022-11-15T14:50:47;15.63;;;7.63;;
23101;SDS011;11720;51.214;22.574;2022-11-15T14:53:17;18.57;;;7.17;;
23101;SDS011;11720;51.214;22.574;2022-11-15T14:55:46;16.47;;;8.03;;
23101;SDS011;11720;51.214;22.574;2022-11-15T14:58:11;14.63;;;6.97;;
23101;SDS011;11720;51.214;22.574;2022-11-15T15:00:38;17.53;;;8.80;;
23101;SDS011;11720;51.214;22.574;2022-11-15T15:03:05;16.37;;;8.67;;
23101;SDS011;11720;51.214;22.574;2022-11-15T15:07:57;27.90;;;9.80;;
23101;SDS011;11720;51.214;22.574;2022-11-15T15:10:23;19.07;;;9.30;;
23101;SDS011;11720;51.214;22.574;2022-11-15T15:12:50;20.33;;;8.87;;
23101;SDS011;11720;51.214;22.574;2022-11-15T15:15:29;19.60;;;10.17;;
23101;SDS011;11720;51.214;22.574;2022-11-15T15:20:55;19.10;;;8.63;;
23101;SDS011;11720;51.214;22.574;2022-11-15T15:23:24;21.30;;;9.60;;
23101;SDS011;11720;51.214;22.574;2022-11-15T15:25:56;19.43;;;8.60;;
23101;SDS011;11720;51.214;22.574;2022-11-15T15:28:31;17.40;;;8.00;;
23101;SDS011;11720;51.214;22.574;2022-11-15T15:31:00;18.40;;;9.43;;
23101;SDS011;11720;51.214;22.574;2022-11-15T15:33:32;22.33;;;8.90;;
23101;SDS011;11720;51.214;22.574;2022-11-15T15:36:03;24.27;;;10.20;;
23101;SDS011;11720;51.214;22.574;2022-11-15T15:38:53;23.23;;;8.87;;
23101;SDS011;11720;51.214;22.574;2022-11-15T15:41:19;21.53;;;10.07;;
23101;SDS011;11720;51.214;22.574;2022-11-15T15:43:46;20.40;;;9.73;;
23101;SDS011;11720;51.214;22.574;2022-11-15T15:46:16;23.90;;;11.50;;
23101;SDS011;11720;51.214;22.574;2022-11-15T15:48:46;18.83;;;9.77;;
23101;SDS011;11720;51.214;22.574;2022-11-15T15:51:16;22.07;;;9.47;;
23101;SDS011;11720;51.214;22.574;2022-11-15T15:53:45;17.90;;;9.10;;
23101;SDS011;11720;51.214;22.574;2022-11-15T15:56:58;21.50;;;11.03;;
23101;SDS011;11720;51.214;22.574;2022-11-15T15:59:24;23.27;;;10.13;;
23101;SDS011;11720;51.214;22.574;2022-11-15T16:01:50;27.03;;;9.60;;
23101;SDS011;11720;51.214;22.574;2022-11-15T16:04:20;23.77;;;10.13;;
23101;SDS011;11720;51.214;22.574;2022-11-15T16:06:46;21.90;;;10.27;;
23101;SDS011;11720;51.214;22.574;2022-11-15T16:09:18;21.33;;;11.60;;
23101;SDS011;11720;51.214;22.574;2022-11-15T16:12:05;16.37;;;9.13;;
23101;SDS011;11720;51.214;22.574;2022-11-15T16:14:35;26.67;;;11.33;;
23101;SDS011;11720;51.214;22.574;2022-11-15T16:17:03;34.30;;;13.73;;
23101;SDS011;11720;51.214;22.574;2022-11-15T16:19:34;33.30;;;13.43;;
23101;SDS011;11720;51.214;22.574;2022-11-15T16:22:01;33.47;;;15.87;;
23101;SDS011;11720;51.214;22.574;2022-11-15T16:24:27;46.53;;;19.93;;
23101;SDS011;11720;51.214;22.574;2022-11-15T16:26:53;43.67;;;17.93;;
23101;SDS011;11720;51.214;22.574;2022-11-15T16:29:21;58.87;;;23.53;;
23101;SDS011;11720;51.214;22.574;2022-11-15T16:31:50;49.07;;;21.13;;
23101;SDS011;11720;51.214;22.574;2022-11-15T16:34:16;61.57;;;22.03;;
23101;SDS011;11720;51.214;22.574;2022-11-15T16:36:42;44.97;;;20.43;;
23101;SDS011;11720;51.214;22.574;2022-11-15T16:39:12;55.00;;;22.10;;
23101;SDS011;11720;51.214;22.574;2022-11-15T16:41:38;38.63;;;19.87;;
23101;SDS011;11720;51.214;22.574;2022-11-15T16:44:14;45.77;;;21.80;;
23101;SDS011;11720;51.214;22.574;2022-11-15T16:46:42;63.27;;;27.53;;
23101;SDS011;11720;51.214;22.574;2022-11-15T16:49:17;52.83;;;24.17;;